sensor_id;sensor_type;location;lat;lon;timestamp;temperature;humidity
3005;DHT22;1512;51.486;6.610;2022-12-18T00:02:53;-3.90;99.90
3005;DHT22;1512;51.486;6.610;2022-12-18T00:07:02;-3.90;99.90
3005;DHT22;1512;51.486;6.610;2022-12-18T00:11:14;-3.90;99.90
3005;DHT22;1512;51.486;6.610;2022-12-18T00:15:23;-3.90;99.90
3005;DHT22;1512;51.486;6.610;2022-12-18T00:19:31;-3.90;99.90
3005;DHT22;1512;51.486;6.610;2022-12-18T00:23:59;-3.90;99.90
3005;DHT22;1512;51.486;6.610;2022-12-18T00:28:08;-3.80;99.90
3005;DHT22;1512;51.486;6.610;2022-12-18T00:32:16;-3.80;99.90
3005;DHT22;1512;51.486;6.610;2022-12-18T00:36:28;-3.80;99.90
3005;DHT22;1512;51.486;6.610;2022-12-18T00:40:37;-3.80;99.90
3005;DHT22;1512;51.486;6.610;2022-12-18T00:44:45;-3.70;99.90
3005;DHT22;1512;51.486;6.610;2022-12-18T00:48:54;-3.70;99.90
3005;DHT22;1512;51.486;6.610;2022-12-18T00:53:22;-3.60;99.90
3005;DHT22;1512;51.486;6.610;2022-12-18T00:57:31;-3.60;99.90
3005;DHT22;1512;51.486;6.610;2022-12-18T01:01:39;-3.60;99.90
3005;DHT22;1512;51.486;6.610;2022-12-18T01:05:48;-3.50;99.90
3005;DHT22;1512;51.486;6.610;2022-12-18T01:09:57;-3.50;99.90
3005;DHT22;1512;51.486;6.610;2022-12-18T01:14:06;-3.50;99.90
3005;DHT22;1512;51.486;6.610;2022-12-18T01:18:15;-3.50;99.90
3005;DHT22;1512;51.486;6.610;2022-12-18T01:22:42;-3.60;99.90
3005;DHT22;1512;51.486;6.610;2022-12-18T01:27:10;-3.60;99.90
3005;DHT22;1512;51.486;6.610;2022-12-18T01:31:27;-3.60;99.90
3005;DHT22;1512;51.486;6.610;2022-12-18T01:39:52;-3.70;99.90
3005;DHT22;1512;51.486;6.610;2022-12-18T01:44:46;-3.70;99.90
3005;DHT22;1512;51.486;6.610;2022-12-18T01:48:12;-3.70;99.90
3005;DHT22;1512;51.486;6.610;2022-12-18T01:52:22;-3.70;99.90
3005;DHT22;1512;51.486;6.610;2022-12-18T01:56:32;-3.70;99.90
3005;DHT22;1512;51.486;6.610;2022-12-18T02:00:41;-3.70;99.90
3005;DHT22;1512;51.486;6.610;2022-12-18T02:04:49;-3.80;99.90
3005;DHT22;1512;51.486;6.610;2022-12-18T02:09:10;-3.80;99.90
3005;DHT22;1512;51.486;6.610;2022-12-18T02:27:06;-3.70;99.90
3005;DHT22;1512;51.486;6.610;2022-12-18T02:31:19;-3.70;99.90
3005;DHT22;1512;51.486;6.610;2022-12-18T02:35:29;-3.70;99.90
3005;DHT22;1512;51.486;6.610;2022-12-18T02:39:41;-3.70;99.90
3005;DHT22;1512;51.486;6.610;2022-12-18T02:43:59;-3.80;99.90
3005;DHT22;1512;51.486;6.610;2022-12-18T02:48:09;-3.80;99.90
3005;DHT22;1512;51.486;6.610;2022-12-18T02:57:03;-3.80;99.90
3005;DHT22;1512;51.486;6.610;2022-12-18T03:06:05;-3.70;99.90
3005;DHT22;1512;51.486;6.610;2022-12-18T03:10:06;-3.70;99.90
3005;DHT22;1512;51.486;6.610;2022-12-18T03:14:17;-3.70;99.90
3005;DHT22;1512;51.486;6.610;2022-12-18T03:18:36;-3.70;99.90
3005;DHT22;1512;51.486;6.610;2022-12-18T03:22:46;-3.70;99.90
3005;DHT22;1512;51.486;6.610;2022-12-18T03:26:58;-3.60;99.90
3005;DHT22;1512;51.486;6.610;2022-12-18T03:31:10;-3.60;99.90
3005;DHT22;1512;51.486;6.610;2022-12-18T03:39:40;-3.60;99.90
3005;DHT22;1512;51.486;6.610;2022-12-18T03:48:33;-3.70;99.90
3005;DHT22;1512;51.486;6.610;2022-12-18T03:53:00;-3.70;99.90
3005;DHT22;1512;51.486;6.610;2022-12-18T03:57:23;-3.80;99.90
3005;DHT22;1512;51.486;6.610;2022-12-18T04:01:39;-3.80;99.90
3005;DHT22;1512;51.486;6.610;2022-12-18T04:06:07;-3.80;99.90
3005;DHT22;1512;51.486;6.610;2022-12-18T04:10:16;-3.80;99.90
3005;DHT22;1512;51.486;6.610;2022-12-18T04:14:25;-3.80;99.90
3005;DHT22;1512;51.486;6.610;2022-12-18T04:18:34;-3.80;99.90
3005;DHT22;1512;51.486;6.610;2022-12-18T04:22:43;-3.80;99.90
3005;DHT22;1512;51.486;6.610;2022-12-18T04:26:52;-3.70;99.90
3005;DHT22;1512;51.486;6.610;2022-12-18T04:31:01;-3.70;99.90
3005;DHT22;1512;51.486;6.610;2022-12-18T04:35:10;-3.60;99.90
3005;DHT22;1512;51.486;6.610;2022-12-18T04:39:19;-3.60;99.90
3005;DHT22;1512;51.486;6.610;2022-12-18T04:43:28;-3.60;99.90
3005;DHT22;1512;51.486;6.610;2022-12-18T04:47:36;-3.70;99.90
3005;DHT22;1512;51.486;6.610;2022-12-18T04:51:51;-3.60;99.90
3005;DHT22;1512;51.486;6.610;2022-12-18T04:56:08;-3.60;99.90
3005;DHT22;1512;51.486;6.610;2022-12-18T05:00:18;-3.60;99.90
3005;DHT22;1512;51.486;6.610;2022-12-18T05:04:26;-3.70;99.90
3005;DHT22;1512;51.486;6.610;2022-12-18T05:08:35;-3.70;99.90
3005;DHT22;1512;51.486;6.610;2022-12-18T05:12:54;-3.70;99.90
3005;DHT22;1512;51.486;6.610;2022-12-18T05:17:08;-3.70;99.90
3005;DHT22;1512;51.486;6.610;2022-12-18T05:21:16;-3.70;99.90
3005;DHT22;1512;51.486;6.610;2022-12-18T05:25:25;-3.70;99.90
3005;DHT22;1512;51.486;6.610;2022-12-18T05:29:34;-3.80;99.90
3005;DHT22;1512;51.486;6.610;2022-12-18T05:33:52;-3.80;99.90
3005;DHT22;1512;51.486;6.610;2022-12-18T05:38:01;-3.80;99.90
3005;DHT22;1512;51.486;6.610;2022-12-18T05:42:10;-3.80;99.90
3005;DHT22;1512;51.486;6.610;2022-12-18T05:46:18;-3.80;99.90
3005;DHT22;1512;51.486;6.610;2022-12-18T05:50:27;-3.90;99.90
3005;DHT22;1512;51.486;6.610;2022-12-18T05:54:35;-3.80;99.90
3005;DHT22;1512;51.486;6.610;2022-12-18T05:58:45;-3.90;99.90
3005;DHT22;1512;51.486;6.610;2022-12-18T06:02:54;-3.90;99.90
3005;DHT22;1512;51.486;6.610;2022-12-18T06:07:04;-3.90;99.90
3005;DHT22;1512;51.486;6.610;2022-12-18T06:11:32;-3.90;99.90
3005;DHT22;1512;51.486;6.610;2022-12-18T06:15:40;-3.90;99.90
3005;DHT22;1512;51.486;6.610;2022-12-18T06:19:49;-3.90;99.90
3005;DHT22;1512;51.486;6.610;2022-12-18T06:23:57;-3.90;99.90
3005;DHT22;1512;51.486;6.610;2022-12-18T06:28:06;-3.90;99.90
3005;DHT22;1512;51.486;6.610;2022-12-18T06:32:15;-3.90;99.90
3005;DHT22;1512;51.486;6.610;2022-12-18T06:36:24;-3.90;99.90
3005;DHT22;1512;51.486;6.610;2022-12-18T06:40:32;-4.00;99.90
3005;DHT22;1512;51.486;6.610;2022-12-18T06:44:41;-4.00;99.90
3005;DHT22;1512;51.486;6.610;2022-12-18T06:48:50;-3.90;99.90
3005;DHT22;1512;51.486;6.610;2022-12-18T06:52:59;-3.90;99.90
3005;DHT22;1512;51.486;6.610;2022-12-18T06:57:09;-3.80;99.90
3005;DHT22;1512;51.486;6.610;2022-12-18T07:01:17;-3.80;99.90
3005;DHT22;1512;51.486;6.610;2022-12-18T07:05:26;-3.90;99.90
3005;DHT22;1512;51.486;6.610;2022-12-18T07:09:35;-3.90;99.90
3005;DHT22;1512;51.486;6.610;2022-12-18T07:13:44;-3.90;99.90
3005;DHT22;1512;51.486;6.610;2022-12-18T07:17:53;-3.90;99.90
3005;DHT22;1512;51.486;6.610;2022-12-18T07:22:01;-3.90;99.90
3005;DHT22;1512;51.486;6.610;2022-12-18T07:26:13;-3.90;99.90
3005;DHT22;1512;51.486;6.610;2022-12-18T07:30:22;-3.90;99.90
3005;DHT22;1512;51.486;6.610;2022-12-18T07:34:30;-3.90;99.90
3005;DHT22;1512;51.486;6.610;2022-12-18T07:38:39;-3.90;99.90
3005;DHT22;1512;51.486;6.610;2022-12-18T07:42:48;-3.80;99.90
3005;DHT22;1512;51.486;6.610;2022-12-18T07:47:16;-3.80;99.90
3005;DHT22;1512;51.486;6.610;2022-12-18T07:51:24;-3.80;99.90
3005;DHT22;1512;51.486;6.610;2022-12-18T07:55:33;-3.80;99.90
3005;DHT22;1512;51.486;6.610;2022-12-18T07:59:43;-3.80;99.90
3005;DHT22;1512;51.486;6.610;2022-12-18T08:04:11;-3.80;99.90
3005;DHT22;1512;51.486;6.610;2022-12-18T08:08:20;-3.80;99.90
3005;DHT22;1512;51.486;6.610;2022-12-18T08:12:28;-3.70;99.90
3005;DHT22;1512;51.486;6.610;2022-12-18T08:16:37;-3.60;99.90
3005;DHT22;1512;51.486;6.610;2022-12-18T08:20:46;-3.50;99.90
3005;DHT22;1512;51.486;6.610;2022-12-18T08:24:54;-3.40;99.90
3005;DHT22;1512;51.486;6.610;2022-12-18T08:29:03;-3.30;99.90
3005;DHT22;1512;51.486;6.610;2022-12-18T08:33:11;-3.20;99.90
3005;DHT22;1512;51.486;6.610;2022-12-18T08:37:20;-3.10;99.90
3005;DHT22;1512;51.486;6.610;2022-12-18T08:41:28;-3.00;99.90
3005;DHT22;1512;51.486;6.610;2022-12-18T08:45:37;-2.90;99.90
3005;DHT22;1512;51.486;6.610;2022-12-18T08:49:46;-2.80;99.90
3005;DHT22;1512;51.486;6.610;2022-12-18T08:53:54;-2.70;99.90
3005;DHT22;1512;51.486;6.610;2022-12-18T08:58:03;-2.60;99.90
3005;DHT22;1512;51.486;6.610;2022-12-18T09:02:12;-2.50;99.90
3005;DHT22;1512;51.486;6.610;2022-12-18T09:06:22;-2.50;99.90
3005;DHT22;1512;51.486;6.610;2022-12-18T09:10:31;-2.40;99.90
3005;DHT22;1512;51.486;6.610;2022-12-18T09:14:40;-2.40;99.90
3005;DHT22;1512;51.486;6.610;2022-12-18T09:18:48;-2.30;99.90
3005;DHT22;1512;51.486;6.610;2022-12-18T09:22:57;-2.30;99.90
3005;DHT22;1512;51.486;6.610;2022-12-18T09:27:06;-2.20;99.90
3005;DHT22;1512;51.486;6.610;2022-12-18T09:31:15;-2.20;99.90
3005;DHT22;1512;51.486;6.610;2022-12-18T09:35:24;-2.10;99.90
3005;DHT22;1512;51.486;6.610;2022-12-18T09:39:33;-2.00;99.90
3005;DHT22;1512;51.486;6.610;2022-12-18T09:43:56;-1.90;99.90
3005;DHT22;1512;51.486;6.610;2022-12-18T09:47:56;-1.80;99.90
3005;DHT22;1512;51.486;6.610;2022-12-18T09:52:15;-1.80;99.90
3005;DHT22;1512;51.486;6.610;2022-12-18T10:00:54;-1.60;99.90
3005;DHT22;1512;51.486;6.610;2022-12-18T10:05:06;-1.50;99.90
3005;DHT22;1512;51.486;6.610;2022-12-18T10:09:32;-1.40;99.90
3005;DHT22;1512;51.486;6.610;2022-12-18T10:13:46;-1.30;99.90
3005;DHT22;1512;51.486;6.610;2022-12-18T10:26:32;-1.00;99.90
3005;DHT22;1512;51.486;6.610;2022-12-18T10:30:42;-1.00;99.90
3005;DHT22;1512;51.486;6.610;2022-12-18T10:34:53;-0.90;99.90
3005;DHT22;1512;51.486;6.610;2022-12-18T10:39:21;-0.90;99.90
3005;DHT22;1512;51.486;6.610;2022-12-18T10:43:32;-0.80;99.90
3005;DHT22;1512;51.486;6.610;2022-12-18T10:47:53;-0.70;99.90
3005;DHT22;1512;51.486;6.610;2022-12-18T10:52:16;-0.60;99.90
3005;DHT22;1512;51.486;6.610;2022-12-18T10:56:21;-0.50;99.90
3005;DHT22;1512;51.486;6.610;2022-12-18T11:00:30;-0.50;99.90
3005;DHT22;1512;51.486;6.610;2022-12-18T11:04:49;-0.40;99.90
3005;DHT22;1512;51.486;6.610;2022-12-18T11:09:07;-0.40;99.90
3005;DHT22;1512;51.486;6.610;2022-12-18T11:13:17;-0.30;99.90
3005;DHT22;1512;51.486;6.610;2022-12-18T11:17:26;-0.30;99.90
3005;DHT22;1512;51.486;6.610;2022-12-18T11:21:41;-0.20;99.90
3005;DHT22;1512;51.486;6.610;2022-12-18T11:26:03;-0.20;99.90
3005;DHT22;1512;51.486;6.610;2022-12-18T11:34:30;-0.10;99.90
3005;DHT22;1512;51.486;6.610;2022-12-18T11:38:43;0.00;99.90
3005;DHT22;1512;51.486;6.610;2022-12-18T11:43:14;0.00;99.90
3005;DHT22;1512;51.486;6.610;2022-12-18T11:47:13;0.00;99.90
3005;DHT22;1512;51.486;6.610;2022-12-18T11:51:33;0.10;99.90
3005;DHT22;1512;51.486;6.610;2022-12-18T12:00:12;0.10;99.90
3005;DHT22;1512;51.486;6.610;2022-12-18T12:09:02;0.20;99.90
3005;DHT22;1512;51.486;6.610;2022-12-18T12:13:16;0.20;99.90
3005;DHT22;1512;51.486;6.610;2022-12-18T12:26:30;0.30;99.90
3005;DHT22;1512;51.486;6.610;2022-12-18T12:39:18;0.30;99.90
3005;DHT22;1512;51.486;6.610;2022-12-18T12:43:38;0.30;99.90
3005;DHT22;1512;51.486;6.610;2022-12-18T12:47:48;0.30;99.90
3005;DHT22;1512;51.486;6.610;2022-12-18T12:52:07;0.30;99.90
3005;DHT22;1512;51.486;6.610;2022-12-18T12:56:18;0.40;99.90
3005;DHT22;1512;51.486;6.610;2022-12-18T13:00:30;0.30;99.90
3005;DHT22;1512;51.486;6.610;2022-12-18T13:04:47;0.40;99.90
3005;DHT22;1512;51.486;6.610;2022-12-18T13:09:12;0.30;99.90
3005;DHT22;1512;51.486;6.610;2022-12-18T13:13:21;0.30;99.90
3005;DHT22;1512;51.486;6.610;2022-12-18T13:17:31;0.30;99.90
3005;DHT22;1512;51.486;6.610;2022-12-18T13:21:40;0.30;99.90
3005;DHT22;1512;51.486;6.610;2022-12-18T13:25:51;0.30;99.90
3005;DHT22;1512;51.486;6.610;2022-12-18T13:29:59;0.30;99.90
3005;DHT22;1512;51.486;6.610;2022-12-18T13:34:22;0.30;99.90
3005;DHT22;1512;51.486;6.610;2022-12-18T13:38:34;0.30;99.90
3005;DHT22;1512;51.486;6.610;2022-12-18T13:42:43;0.30;99.90
3005;DHT22;1512;51.486;6.610;2022-12-18T13:47:38;0.30;99.90
3005;DHT22;1512;51.486;6.610;2022-12-18T13:51:52;0.30;99.90
3005;DHT22;1512;51.486;6.610;2022-12-18T13:56:03;0.30;99.90
3005;DHT22;1512;51.486;6.610;2022-12-18T14:00:29;0.30;99.90
3005;DHT22;1512;51.486;6.610;2022-12-18T14:04:38;0.20;99.90
3005;DHT22;1512;51.486;6.610;2022-12-18T14:08:47;0.30;99.90
3005;DHT22;1512;51.486;6.610;2022-12-18T14:12:59;0.30;99.90
3005;DHT22;1512;51.486;6.610;2022-12-18T14:17:11;0.20;99.90
3005;DHT22;1512;51.486;6.610;2022-12-18T14:21:27;0.20;99.90
3005;DHT22;1512;51.486;6.610;2022-12-18T14:25:32;0.20;99.90
3005;DHT22;1512;51.486;6.610;2022-12-18T14:29:43;0.20;99.90
3005;DHT22;1512;51.486;6.610;2022-12-18T14:33:52;0.20;99.90
3005;DHT22;1512;51.486;6.610;2022-12-18T14:38:21;0.20;99.90
3005;DHT22;1512;51.486;6.610;2022-12-18T14:42:30;0.20;99.90
3005;DHT22;1512;51.486;6.610;2022-12-18T14:46:41;0.20;99.90
3005;DHT22;1512;51.486;6.610;2022-12-18T14:51:01;0.20;99.90
3005;DHT22;1512;51.486;6.610;2022-12-18T14:55:17;0.20;99.90
3005;DHT22;1512;51.486;6.610;2022-12-18T14:59:46;0.10;99.90
3005;DHT22;1512;51.486;6.610;2022-12-18T15:03:56;0.10;99.90
3005;DHT22;1512;51.486;6.610;2022-12-18T15:08:24;0.10;99.90
3005;DHT22;1512;51.486;6.610;2022-12-18T15:12:34;0.10;99.90
3005;DHT22;1512;51.486;6.610;2022-12-18T15:16:43;0.10;99.90
3005;DHT22;1512;51.486;6.610;2022-12-18T15:21:07;0.00;99.90
3005;DHT22;1512;51.486;6.610;2022-12-18T15:25:32;0.00;99.90
3005;DHT22;1512;51.486;6.610;2022-12-18T15:29:42;-0.10;99.90
3005;DHT22;1512;51.486;6.610;2022-12-18T15:38:11;-0.10;99.90
3005;DHT22;1512;51.486;6.610;2022-12-18T15:42:20;-0.10;99.90
3005;DHT22;1512;51.486;6.610;2022-12-18T15:46:47;-0.10;99.90
3005;DHT22;1512;51.486;6.610;2022-12-18T15:50:57;-0.10;99.90
3005;DHT22;1512;51.486;6.610;2022-12-18T15:55:11;-0.10;99.90
3005;DHT22;1512;51.486;6.610;2022-12-18T15:59:38;-0.20;99.90
3005;DHT22;1512;51.486;6.610;2022-12-18T16:03:47;-0.20;99.90
3005;DHT22;1512;51.486;6.610;2022-12-18T16:07:55;-0.20;99.90
3005;DHT22;1512;51.486;6.610;2022-12-18T16:12:23;-0.20;99.90
3005;DHT22;1512;51.486;6.610;2022-12-18T16:16:33;-0.20;99.90
3005;DHT22;1512;51.486;6.610;2022-12-18T16:20:41;-0.20;99.90
3005;DHT22;1512;51.486;6.610;2022-12-18T16:24:51;-0.30;99.90
3005;DHT22;1512;51.486;6.610;2022-12-18T16:29:00;-0.20;99.90
3005;DHT22;1512;51.486;6.610;2022-12-18T16:33:10;-0.20;99.90
3005;DHT22;1512;51.486;6.610;2022-12-18T16:37:18;-0.30;99.90
3005;DHT22;1512;51.486;6.610;2022-12-18T16:41:27;-0.20;99.90
3005;DHT22;1512;51.486;6.610;2022-12-18T16:45:38;-0.30;99.90
3005;DHT22;1512;51.486;6.610;2022-12-18T16:49:47;-0.30;99.90
3005;DHT22;1512;51.486;6.610;2022-12-18T16:53:57;-0.30;99.90
3005;DHT22;1512;51.486;6.610;2022-12-18T16:58:06;-0.30;99.90
3005;DHT22;1512;51.486;6.610;2022-12-18T17:02:20;-0.30;99.90
3005;DHT22;1512;51.486;6.610;2022-12-18T17:06:33;-0.30;99.90
3005;DHT22;1512;51.486;6.610;2022-12-18T17:10:42;-0.30;99.90
3005;DHT22;1512;51.486;6.610;2022-12-18T17:14:50;-0.30;99.90
3005;DHT22;1512;51.486;6.610;2022-12-18T17:18:59;-0.30;99.90
3005;DHT22;1512;51.486;6.610;2022-12-18T17:23:08;-0.30;99.90
3005;DHT22;1512;51.486;6.610;2022-12-18T17:27:16;-0.30;99.90
3005;DHT22;1512;51.486;6.610;2022-12-18T17:31:27;-0.30;99.90
3005;DHT22;1512;51.486;6.610;2022-12-18T17:35:36;-0.30;99.90
3005;DHT22;1512;51.486;6.610;2022-12-18T17:39:45;-0.30;99.90
3005;DHT22;1512;51.486;6.610;2022-12-18T17:43:56;-0.30;99.90
3005;DHT22;1512;51.486;6.610;2022-12-18T17:48:06;-0.30;99.90
3005;DHT22;1512;51.486;6.610;2022-12-18T17:52:15;-0.40;99.90
3005;DHT22;1512;51.486;6.610;2022-12-18T17:56:24;-0.30;99.90
3005;DHT22;1512;51.486;6.610;2022-12-18T18:00:34;-0.40;99.90
3005;DHT22;1512;51.486;6.610;2022-12-18T18:04:42;-0.40;99.90
3005;DHT22;1512;51.486;6.610;2022-12-18T18:08:52;-0.40;99.90
3005;DHT22;1512;51.486;6.610;2022-12-18T18:13:05;-0.40;99.90
3005;DHT22;1512;51.486;6.610;2022-12-18T18:17:31;-0.40;99.90
3005;DHT22;1512;51.486;6.610;2022-12-18T18:21:42;-0.40;99.90
3005;DHT22;1512;51.486;6.610;2022-12-18T18:25:51;-0.40;99.90
3005;DHT22;1512;51.486;6.610;2022-12-18T18:30:00;-0.40;99.90
3005;DHT22;1512;51.486;6.610;2022-12-18T18:34:21;-0.30;99.90
3005;DHT22;1512;51.486;6.610;2022-12-18T18:38:46;-0.40;99.90
3005;DHT22;1512;51.486;6.610;2022-12-18T18:42:55;-0.40;99.90
3005;DHT22;1512;51.486;6.610;2022-12-18T18:47:04;-0.40;99.90
3005;DHT22;1512;51.486;6.610;2022-12-18T18:51:16;-0.40;99.90
3005;DHT22;1512;51.486;6.610;2022-12-18T18:55:27;-0.40;99.90
3005;DHT22;1512;51.486;6.610;2022-12-18T18:59:35;-0.40;99.90
3005;DHT22;1512;51.486;6.610;2022-12-18T19:03:44;-0.40;99.90
3005;DHT22;1512;51.486;6.610;2022-12-18T19:07:54;-0.40;99.90
3005;DHT22;1512;51.486;6.610;2022-12-18T19:12:03;-0.40;99.90
3005;DHT22;1512;51.486;6.610;2022-12-18T19:21:28;-0.40;99.90
3005;DHT22;1512;51.486;6.610;2022-12-18T19:25:40;-0.40;99.90
3005;DHT22;1512;51.486;6.610;2022-12-18T19:30:09;-0.50;99.90
3005;DHT22;1512;51.486;6.610;2022-12-18T19:34:18;-0.40;99.90
3005;DHT22;1512;51.486;6.610;2022-12-18T19:38:46;-0.40;99.90
3005;DHT22;1512;51.486;6.610;2022-12-18T19:42:55;-0.40;99.90
3005;DHT22;1512;51.486;6.610;2022-12-18T19:47:04;-0.40;99.90
3005;DHT22;1512;51.486;6.610;2022-12-18T19:51:21;-0.40;99.90
3005;DHT22;1512;51.486;6.610;2022-12-18T19:55:30;-0.40;99.90
3005;DHT22;1512;51.486;6.610;2022-12-18T19:59:39;-0.40;99.90
3005;DHT22;1512;51.486;6.610;2022-12-18T20:03:48;-0.30;99.90
3005;DHT22;1512;51.486;6.610;2022-12-18T20:07:58;-0.30;99.90
3005;DHT22;1512;51.486;6.610;2022-12-18T20:12:07;-0.30;99.90
3005;DHT22;1512;51.486;6.610;2022-12-18T20:16:16;-0.30;99.90
3005;DHT22;1512;51.486;6.610;2022-12-18T20:20:24;-0.30;99.90
3005;DHT22;1512;51.486;6.610;2022-12-18T20:24:33;-0.30;99.90
3005;DHT22;1512;51.486;6.610;2022-12-18T20:29:01;-0.30;99.90
3005;DHT22;1512;51.486;6.610;2022-12-18T20:33:10;-0.20;99.90
3005;DHT22;1512;51.486;6.610;2022-12-18T20:41:40;-0.20;99.90
3005;DHT22;1512;51.486;6.610;2022-12-18T20:45:49;-0.20;99.90
3005;DHT22;1512;51.486;6.610;2022-12-18T20:49:58;-0.20;99.90
3005;DHT22;1512;51.486;6.610;2022-12-18T20:54:07;-0.20;99.90
3005;DHT22;1512;51.486;6.610;2022-12-18T20:58:17;-0.20;99.90
3005;DHT22;1512;51.486;6.610;2022-12-18T21:02:26;-0.20;99.90
3005;DHT22;1512;51.486;6.610;2022-12-18T21:06:35;-0.20;99.90
3005;DHT22;1512;51.486;6.610;2022-12-18T21:10:44;-0.20;99.90
3005;DHT22;1512;51.486;6.610;2022-12-18T21:14:53;-0.20;99.90
3005;DHT22;1512;51.486;6.610;2022-12-18T21:19:02;-0.10;99.90
3005;DHT22;1512;51.486;6.610;2022-12-18T21:23:11;-0.10;99.90
3005;DHT22;1512;51.486;6.610;2022-12-18T21:27:21;-0.10;99.90
3005;DHT22;1512;51.486;6.610;2022-12-18T21:31:34;-0.10;99.90
3005;DHT22;1512;51.486;6.610;2022-12-18T21:35:42;-0.10;99.90
3005;DHT22;1512;51.486;6.610;2022-12-18T21:39:51;-0.10;99.90
3005;DHT22;1512;51.486;6.610;2022-12-18T21:44:19;-0.10;99.90
3005;DHT22;1512;51.486;6.610;2022-12-18T21:48:28;-0.10;99.90
3005;DHT22;1512;51.486;6.610;2022-12-18T21:52:37;-0.10;99.90
3005;DHT22;1512;51.486;6.610;2022-12-18T21:56:56;0.00;99.90
3005;DHT22;1512;51.486;6.610;2022-12-18T22:01:05;-0.10;99.90
3005;DHT22;1512;51.486;6.610;2022-12-18T22:05:14;-0.10;99.90
3005;DHT22;1512;51.486;6.610;2022-12-18T22:09:24;-0.10;99.90
3005;DHT22;1512;51.486;6.610;2022-12-18T22:13:32;0.00;99.90
3005;DHT22;1512;51.486;6.610;2022-12-18T22:17:41;0.00;99.90
3005;DHT22;1512;51.486;6.610;2022-12-18T22:21:50;0.00;99.90
3005;DHT22;1512;51.486;6.610;2022-12-18T22:26:01;0.00;99.90
3005;DHT22;1512;51.486;6.610;2022-12-18T22:30:10;0.00;99.90
3005;DHT22;1512;51.486;6.610;2022-12-18T22:34:21;0.00;99.90
3005;DHT22;1512;51.486;6.610;2022-12-18T22:38:30;0.00;99.90
3005;DHT22;1512;51.486;6.610;2022-12-18T22:42:38;0.00;99.90
3005;DHT22;1512;51.486;6.610;2022-12-18T22:47:07;0.00;99.90
3005;DHT22;1512;51.486;6.610;2022-12-18T22:51:35;0.10;99.90
3005;DHT22;1512;51.486;6.610;2022-12-18T22:56:03;0.10;99.90
3005;DHT22;1512;51.486;6.610;2022-12-18T23:00:13;0.00;99.90
3005;DHT22;1512;51.486;6.610;2022-12-18T23:04:43;0.10;99.90
3005;DHT22;1512;51.486;6.610;2022-12-18T23:08:58;0.10;99.90
3005;DHT22;1512;51.486;6.610;2022-12-18T23:13:22;0.10;99.90
3005;DHT22;1512;51.486;6.610;2022-12-18T23:17:31;0.10;99.90
3005;DHT22;1512;51.486;6.610;2022-12-18T23:21:40;0.10;99.90
3005;DHT22;1512;51.486;6.610;2022-12-18T23:25:48;0.20;99.90
3005;DHT22;1512;51.486;6.610;2022-12-18T23:29:57;0.20;99.90
3005;DHT22;1512;51.486;6.610;2022-12-18T23:34:06;0.20;99.90
3005;DHT22;1512;51.486;6.610;2022-12-18T23:38:15;0.20;99.90
3005;DHT22;1512;51.486;6.610;2022-12-18T23:42:43;0.20;99.90
3005;DHT22;1512;51.486;6.610;2022-12-18T23:46:52;0.20;99.90
3005;DHT22;1512;51.486;6.610;2022-12-18T23:51:06;0.30;99.90
3005;DHT22;1512;51.486;6.610;2022-12-18T23:55:14;0.30;99.90
3005;DHT22;1512;51.486;6.610;2022-12-18T23:59:23;0.30;99.90
